Time;durP1;ratioP1;P1;durP2;ratioP2;P2;SDS_P1;SDS_P2;PMS_P1;PMS_P2;Temp;Humidity;BMP_temperature;BMP_pressure;BME280_temperature;BME280_humidity;BME280_pressure;Samples;Min_cycle;Max_cycle;Signal;HPM_P1;HPM_P2
2021/03/18 05:52:15;;;;;;;17.77;9.00;;;;;;;0.70;100.00;98108.80;1675406;82;21267;-58
2021/03/18 05:54:48;;;;;;;28.30;14.97;;;;;;;0.72;100.00;98113.32;1670279;84;21167;-59
2021/03/18 05:57:18;;;;;;;23.20;12.73;;;;;;;0.76;100.00;98113.81;1643186;86;21214;-59
2021/03/18 05:59:48;;;;;;;;;;;;;;;0.80;100.00;98112.49;1703778;83;21120;-59
2021/03/18 06:02:18;;;;;;;25.70;14.17;;;;;;;0.85;100.00;98119.30;1709114;84;20149;-58
2021/03/18 06:04:49;;;;;;;22.17;12.97;;;;;;;0.91;100.00;98132.11;1709159;84;21156;-60
2021/03/18 06:07:19;;;;;;;20.00;10.45;;;;;;;0.97;100.00;98121.07;1707588;83;21101;-58
2021/03/18 06:09:49;;;;;;;16.00;9.10;;;;;;;1.01;100.00;98132.75;1712613;82;21162;-58
2021/03/18 06:12:18;;;;;;;16.17;8.97;;;;;;;1.03;100.00;98130.34;1716131;83;21188;-57
2021/03/18 06:14:47;;;;;;;54.60;29.03;;;;;;;1.03;100.00;98128.20;1726113;83;21182;-58
2021/03/18 06:17:19;;;;;;;27.87;14.90;;;;;;;1.01;100.00;98137.45;1720284;82;21132;-51
2021/03/18 06:19:49;;;;;;;;;;;;;;;0.98;100.00;98142.99;1690640;82;21322;-52
2021/03/18 06:22:35;;;;;;;12.93;7.77;;;;;;;0.95;100.00;98139.90;1712035;82;20197;-49
2021/03/18 06:25:06;;;;;;;13.20;6.97;;;;;;;0.97;100.00;98140.53;1702460;83;21650;-55
2021/03/18 06:27:35;;;;;;;11.57;6.43;;;;;;;1.03;100.00;98147.66;1720404;83;21355;-59
2021/03/18 06:30:11;;;;;;;12.40;6.30;;;;;;;1.09;100.00;98143.60;1720543;83;21169;-61
2021/03/18 06:32:41;;;;;;;13.43;7.00;;;;;;;1.14;100.00;98152.52;1709224;82;21168;-64
2021/03/18 06:35:13;;;;;;;10.20;6.53;;;;;;;1.18;100.00;98154.31;1668614;84;21175;-61
2021/03/18 06:37:47;;;;;;;10.70;5.90;;;;;;;1.23;100.00;98158.52;1647947;85;21178;-60
2021/03/18 06:40:18;;;;;;;9.10;5.40;;;;;;;1.31;100.00;98148.11;1661266;85;21335;-61
2021/03/18 06:42:59;;;;;;;6.87;5.07;;;;;;;1.36;100.00;98148.42;1637134;85;21217;-59
2021/03/18 06:45:34;;;;;;;23.40;13.40;;;;;;;1.42;100.00;98165.13;1654174;85;21584;-60
2021/03/18 06:48:13;;;;;;;14.73;7.53;;;;;;;1.49;100.00;98144.00;1655668;85;21168;-60
2021/03/18 06:50:47;;;;;;;18.47;8.03;;;;;;;1.63;100.00;98155.50;1665554;86;21655;-60
2021/03/18 06:53:29;;;;;;;19.37;9.13;;;;;;;1.67;100.00;98157.59;1678788;84;21215;-61
2021/03/18 06:56:05;;;;;;;25.67;11.57;;;;;;;1.68;100.00;98173.50;1679762;85;22187;-57
2021/03/18 06:58:35;;;;;;;10.73;5.87;;;;;;;1.70;100.00;98148.64;1706344;84;21237;-58
2021/03/18 07:01:07;;;;;;;13.33;6.63;;;;;;;1.70;100.00;98165.53;1679474;84;21705;-55
2021/03/18 07:03:38;;;;;;;11.40;7.00;;;;;;;1.71;100.00;98173.64;1674402;85;21148;-64
2021/03/18 07:06:10;;;;;;;12.20;6.43;;;;;;;1.73;100.00;98162.61;1678522;84;21709;-59
2021/03/18 07:08:40;;;;;;;8.60;5.53;;;;;;;1.80;100.00;98172.16;1680730;84;21607;-63
2021/03/18 07:11:22;;;;;;;16.70;7.07;;;;;;;1.88;100.00;98170.50;1680072;85;21697;-60
2021/03/18 07:13:52;;;;;;;7.93;5.63;;;;;;;1.96;100.00;98167.88;1681541;84;21132;-62
2021/03/18 07:16:22;;;;;;;11.75;6.28;;;;;;;2.02;100.00;98160.20;1655593;85;21159;-59
2021/03/18 07:18:58;;;;;;;8.50;5.97;;;;;;;2.01;100.00;98175.49;1685719;84;21282;-59
2021/03/18 07:21:39;;;;;;;14.00;7.63;;;;;;;2.00;100.00;98175.64;1680246;85;21191;-60
2021/03/18 07:24:36;;;;;;;10.67;6.80;;;;;;;2.01;100.00;98177.28;1676813;84;21580;-61
2021/03/18 07:27:15;;;;;;;11.80;7.43;;;;;;;2.05;99.72;98178.05;1663613;86;21153;-62
2021/03/18 07:29:46;;;;;;;14.17;7.53;;;;;;;2.05;98.73;98182.44;1652487;86;21588;-69
2021/03/18 07:32:15;;;;;;;;;;;;;;;2.08;98.93;98175.62;1665882;86;21896;-61
2021/03/18 07:34:48;;;;;;;8.97;5.37;;;;;;;2.16;99.32;98173.45;1669607;84;20210;-62
2021/03/18 07:37:16;;;;;;;10.68;6.45;;;;;;;2.27;97.15;98182.17;1673837;86;21184;-57
2021/03/18 07:39:46;;;;;;;14.00;6.60;;;;;;;2.34;96.52;98174.80;1674099;86;21180;-59
2021/03/18 07:42:17;;;;;;;10.43;5.80;;;;;;;2.37;96.97;98178.87;1674489;85;21630;-59
2021/03/18 07:44:51;;;;;;;10.97;5.27;;;;;;;2.36;93.92;98158.56;1674308;85;21167;-60
2021/03/18 07:47:23;;;;;;;9.57;5.70;;;;;;;2.29;93.18;98173.70;1680302;84;21345;-60
2021/03/18 07:49:54;;;;;;;12.58;6.45;;;;;;;2.19;93.43;98184.83;1683299;84;21290;-66
2021/03/18 07:52:27;;;;;;;11.10;6.50;;;;;;;2.15;95.90;98170.55;1668798;85;21225;-60
2021/03/18 07:54:58;;;;;;;10.98;6.55;;;;;;;2.20;97.50;98161.25;1687188;83;21163;-61
2021/03/18 07:57:31;;;;;;;20.68;11.05;;;;;;;2.28;96.35;98173.39;1685638;85;21149;-60
2021/03/18 08:00:14;;;;;;;13.33;8.10;;;;;;;2.31;95.82;98166.06;1659558;85;21144;-61
2021/03/18 08:02:44;;;;;;;9.90;5.67;;;;;;;2.36;94.82;98172.86;1686230;84;21183;-60
2021/03/18 08:05:40;;;;;;;12.60;5.70;;;;;;;2.40;92.72;98166.80;1688133;85;21214;-58
2021/03/18 08:08:13;;;;;;;7.07;4.77;;;;;;;2.43;91.64;98174.28;1687672;85;21349;-56
2021/03/18 08:10:45;;;;;;;5.83;4.17;;;;;;;2.48;89.86;98186.78;1684254;85;21194;-63
2021/03/18 08:13:32;;;;;;;9.47;5.73;;;;;;;2.56;88.46;98188.02;1687025;85;21179;-66
2021/03/18 08:16:03;;;;;;;8.13;5.20;;;;;;;2.65;90.79;98159.17;1692457;84;21324;-68
2021/03/18 08:18:35;;;;;;;9.53;5.70;;;;;;;2.74;90.07;98169.02;1693752;83;21163;-63
2021/03/18 08:21:07;;;;;;;7.67;5.00;;;;;;;2.78;88.70;98170.78;1687817;85;21682;-63
2021/03/18 08:23:36;;;;;;;6.53;4.80;;;;;;;2.75;87.20;98162.01;1660730;85;21186;-61
2021/03/18 08:26:14;;;;;;;10.10;5.50;;;;;;;2.74;88.28;98156.49;1698791;84;21207;-56
2021/03/18 08:28:58;;;;;;;9.03;5.73;;;;;;;2.78;90.54;98174.19;1705694;84;21353;-59
2021/03/18 08:31:45;;;;;;;7.30;5.17;;;;;;;2.94;88.90;98177.17;1702141;83;21134;-52
2021/03/18 08:34:15;;;;;;;8.47;5.20;;;;;;;3.12;88.82;98169.03;1690051;84;21701;-52
2021/03/18 08:36:58;;;;;;;9.00;5.53;;;;;;;3.23;84.81;98184.23;1659192;85;21239;-58
2021/03/18 08:39:48;;;;;;;7.58;5.22;;;;;;;3.25;85.45;98191.37;1641463;87;21331;-56
2021/03/18 08:42:35;;;;;;;5.35;4.00;;;;;;;3.22;85.79;98168.30;1629608;87;21318;-55
2021/03/18 08:45:22;;;;;;;5.60;4.47;;;;;;;3.16;82.29;98202.37;1653219;87;21611;-67
2021/03/18 08:47:55;;;;;;;7.58;4.83;;;;;;;3.06;83.13;98191.38;1637124;85;21173;-61
2021/03/18 08:50:30;;;;;;;7.50;5.10;;;;;;;3.04;83.90;98179.51;1659306;85;21168;-57
2021/03/18 08:53:03;;;;;;;11.55;6.10;;;;;;;3.02;82.87;98186.70;1622039;87;20524;-57
2021/03/18 08:55:40;;;;;;;8.08;4.45;;;;;;;3.02;84.62;98191.41;1675846;84;21729;-60
2021/03/18 08:58:11;;;;;;;10.63;5.30;;;;;;;3.11;83.60;98190.36;1678185;84;21193;-55
2021/03/18 09:03:22;;;;;;;10.30;5.25;;;;;;;3.23;82.77;98190.75;1805706;77;23118;-56
2021/03/18 09:05:57;;;;;;;5.60;4.40;;;;;;;3.22;84.44;98189.63;1786910;79;21162;-50
2021/03/18 09:08:30;;;;;;;12.77;7.27;;;;;;;3.28;81.71;98179.30;1770627;79;21174;-58
2021/03/18 09:11:03;;;;;;;10.77;6.40;;;;;;;3.18;80.48;98208.70;1679485;82;21214;-57
2021/03/18 09:13:32;;;;;;;5.83;4.27;;;;;;;3.08;83.26;98192.00;1758904;80;21154;-56
2021/03/18 09:16:02;;;;;;;10.43;4.97;;;;;;;3.02;81.22;98203.13;1698333;80;21111;-53
2021/03/18 09:18:33;;;;;;;19.73;8.90;;;;;;;2.88;81.34;98194.30;1742210;80;21174;-55
2021/03/18 09:21:12;;;;;;;16.12;8.00;;;;;;;2.84;82.67;98202.63;1701945;82;21215;-56
2021/03/18 09:23:43;;;;;;;17.60;7.97;;;;;;;2.75;84.67;98199.75;1723043;83;21765;-55
2021/03/18 09:26:16;;;;;;;8.97;5.40;;;;;;;2.64;84.48;98197.08;1727570;82;21157;-54
2021/03/18 09:28:47;;;;;;;7.90;5.07;;;;;;;2.54;84.58;98203.80;1717475;82;21158;-60
2021/03/18 09:31:22;;;;;;;6.58;4.50;;;;;;;2.47;85.16;98216.38;1724886;83;21161;-64
2021/03/18 09:34:09;;;;;;;10.58;5.22;;;;;;;2.41;84.39;98203.56;1763385;80;21102;-56
2021/03/18 09:36:38;;;;;;;9.20;5.65;;;;;;;2.30;84.99;98200.05;1761285;81;21145;-57
2021/03/18 09:39:14;;;;;;;11.97;6.53;;;;;;;2.23;85.36;98195.19;1761195;80;21153;-57
2021/03/18 09:41:45;;;;;;;;;;;;;;;2.23;86.56;98216.80;1758262;80;21122;-57
2021/03/18 09:44:21;;;;;;;11.57;5.95;;;;;;;2.28;88.36;98185.09;1766470;80;20187;-57
2021/03/18 09:46:56;;;;;;;13.50;7.10;;;;;;;2.32;89.80;98209.78;1789464;80;21177;-55
2021/03/18 09:49:32;;;;;;;9.03;5.60;;;;;;;2.31;91.21;98207.67;1730627;82;21247;-53
2021/03/18 09:52:08;;;;;;;7.90;4.70;;;;;;;2.30;91.06;98202.16;1709382;82;21172;-53
2021/03/18 09:54:37;;;;;;;6.80;4.50;;;;;;;2.23;90.65;98197.30;1711883;82;21202;-53
2021/03/18 09:57:09;;;;;;;6.53;4.87;;;;;;;2.09;91.54;98202.73;1731283;82;21670;-49
2021/03/18 09:59:39;;;;;;;9.67;5.87;;;;;;;1.90;92.89;98217.94;1734729;82;21190;-49
2021/03/18 10:02:14;;;;;;;9.83;5.50;;;;;;;1.82;95.52;98207.06;1696757;83;21373;-50
2021/03/18 10:04:45;;;;;;;10.33;5.57;;;;;;;1.84;96.44;98219.42;1716997;82;21751;-54
2021/03/18 10:07:15;;;;;;;7.80;5.00;;;;;;;1.84;96.96;98215.52;1736531;82;21202;-52
2021/03/18 10:09:46;;;;;;;9.10;5.65;;;;;;;1.87;96.17;98220.38;1706649;82;21213;-51
2021/03/18 10:12:20;;;;;;;8.83;5.07;;;;;;;1.91;95.87;98232.06;1709000;82;21193;-52
2021/03/18 10:15:06;;;;;;;9.23;5.60;;;;;;;1.99;95.30;98222.92;1717588;82;21186;-53
2021/03/18 10:17:41;;;;;;;10.70;5.53;;;;;;;2.13;95.90;98227.43;1691056;84;21198;-55
2021/03/18 10:20:20;;;;;;;10.77;6.10;;;;;;;2.32;94.95;98216.28;1705978;82;21099;-55
2021/03/18 10:23:01;;;;;;;10.63;5.83;;;;;;;2.46;93.33;98225.14;1744024;82;21534;-53
2021/03/18 10:25:35;;;;;;;10.43;5.80;;;;;;;2.56;91.38;98220.05;1716754;83;21193;-54
2021/03/18 10:28:10;;;;;;;12.63;6.27;;;;;;;2.57;89.06;98222.16;1710520;83;21170;-55
2021/03/18 10:30:42;;;;;;;10.90;6.20;;;;;;;2.60;88.92;98223.13;1695727;83;21182;-56
2021/03/18 10:33:22;;;;;;;9.33;5.30;;;;;;;2.64;87.99;98223.91;1721740;83;21585;-56
2021/03/18 10:35:59;;;;;;;9.03;5.27;;;;;;;2.71;87.18;98208.41;1705139;82;21190;-56
2021/03/18 10:38:39;;;;;;;10.33;5.80;;;;;;;2.77;86.92;98207.72;1695479;84;21578;-55
2021/03/18 10:41:14;;;;;;;;;;;;;;;2.81;85.38;98213.37;1698001;85;21218;-55
2021/03/18 10:43:45;;;;;;;10.37;5.73;;;;;;;2.85;84.16;98198.53;1716805;82;20160;-56
2021/03/18 10:46:17;;;;;;;7.77;5.10;;;;;;;2.86;85.02;98189.73;1740574;82;21162;-57
2021/03/18 10:48:49;;;;;;;8.90;5.07;;;;;;;2.82;83.25;98198.09;1712518;83;21170;-56
2021/03/18 10:51:20;;;;;;;7.43;4.93;;;;;;;2.70;85.56;98222.41;1714989;82;21165;-56
2021/03/18 10:53:53;;;;;;;8.93;4.90;;;;;;;2.65;85.67;98202.60;1713202;82;21331;-55
2021/03/18 10:56:28;;;;;;;8.70;5.13;;;;;;;2.59;85.08;98210.61;1707263;83;21896;-59
2021/03/18 10:59:16;;;;;;;6.93;4.70;;;;;;;2.49;84.25;98211.81;1724456;82;21271;-56
2021/03/18 11:01:46;;;;;;;7.77;5.00;;;;;;;2.38;83.95;98216.41;1727787;81;21242;-55
2021/03/18 11:04:18;;;;;;;8.43;5.03;;;;;;;2.35;86.01;98211.56;1726030;83;21554;-58
2021/03/18 11:06:48;;;;;;;9.90;5.17;;;;;;;2.37;82.04;98189.27;1692641;83;21519;-56
2021/03/18 11:09:18;;;;;;;9.00;5.13;;;;;;;2.37;82.05;98218.70;1687383;84;21221;-54
2021/03/18 11:11:57;;;;;;;7.50;4.70;;;;;;;2.43;81.24;98203.39;1717963;83;21348;-54
2021/03/18 11:14:31;;;;;;;7.43;5.00;;;;;;;2.53;88.75;98217.80;1684675;85;21174;-55
2021/03/18 11:17:08;;;;;;;7.17;4.93;;;;;;;2.88;85.08;98209.11;1711965;82;21149;-56
2021/03/18 11:19:38;;;;;;;7.40;5.10;;;;;;;2.98;81.90;98205.75;1720195;82;21303;-55
2021/03/18 11:22:08;;;;;;;9.97;5.30;;;;;;;2.96;80.43;98209.53;1688986;84;21628;-59
2021/03/18 11:24:37;;;;;;;11.53;5.80;;;;;;;2.88;81.60;98194.30;1733150;82;21372;-53
2021/03/18 11:27:07;;;;;;;9.13;5.33;;;;;;;2.89;83.43;98192.00;1710425;82;21335;-55
2021/03/18 11:29:37;;;;;;;12.53;6.83;;;;;;;2.97;83.82;98194.22;1720738;83;21203;-58
2021/03/18 11:32:07;;;;;;;9.10;5.53;;;;;;;3.00;82.46;98193.88;1722542;83;21361;-57
2021/03/18 11:34:38;;;;;;;13.45;5.95;;;;;;;3.00;80.75;98200.39;1704922;83;21213;-55
2021/03/18 11:37:12;;;;;;;10.53;5.62;;;;;;;2.95;78.03;98207.91;1712703;83;21166;-56
2021/03/18 11:39:42;;;;;;;8.97;4.70;;;;;;;2.84;78.79;98189.61;1715988;82;21154;-55
2021/03/18 11:42:11;;;;;;;8.83;5.30;;;;;;;2.77;77.96;98199.11;1694540;84;21351;-55
2021/03/18 11:44:41;;;;;;;8.53;5.77;;;;;;;2.70;77.83;98197.69;1700758;84;21540;-56
2021/03/18 11:47:13;;;;;;;7.80;5.33;;;;;;;2.63;78.89;98192.34;1702296;84;21340;-56
2021/03/18 11:49:44;;;;;;;12.90;6.17;;;;;;;2.61;78.15;98200.83;1698117;84;21296;-57
2021/03/18 11:52:14;;;;;;;12.77;6.80;;;;;;;2.60;78.27;98195.30;1692999;85;21606;-57
2021/03/18 11:54:43;;;;;;;13.50;6.93;;;;;;;2.59;77.97;98204.10;1693063;85;21187;-55
2021/03/18 11:57:13;;;;;;;12.77;6.43;;;;;;;2.58;76.77;98200.34;1692111;84;21281;-55
2021/03/18 11:59:44;;;;;;;10.17;5.70;;;;;;;2.53;75.88;98195.69;1675832;84;21173;-59
2021/03/18 12:02:13;;;;;;;10.63;5.87;;;;;;;2.49;74.53;98207.41;1729027;82;21214;-56
2021/03/18 12:04:43;;;;;;;9.33;5.50;;;;;;;2.48;74.88;98205.80;1749874;81;21556;-60
2021/03/18 12:07:13;;;;;;;10.53;5.37;;;;;;;2.48;75.04;98199.78;1727505;81;21711;-56
2021/03/18 12:09:43;;;;;;;11.77;4.90;;;;;;;2.49;75.31;98205.30;1720852;82;21234;-56
2021/03/18 12:12:12;;;;;;;10.13;5.87;;;;;;;2.50;74.48;98199.92;1735120;82;21174;-57
2021/03/18 12:14:42;;;;;;;8.77;5.80;;;;;;;2.52;75.07;98205.75;1721488;81;21178;-56
2021/03/18 12:17:11;;;;;;;11.80;5.47;;;;;;;2.54;74.80;98199.09;1748847;81;21178;-50
2021/03/18 12:19:42;;;;;;;11.43;5.95;;;;;;;2.54;75.92;98196.00;1744998;81;21180;-57
2021/03/18 12:22:11;;;;;;;12.43;6.27;;;;;;;2.61;75.92;98194.81;1752845;81;21201;-52
2021/03/18 12:24:40;;;;;;;10.03;5.17;;;;;;;2.65;75.71;98205.20;1730921;82;21320;-61
2021/03/18 12:27:09;;;;;;;8.03;5.33;;;;;;;2.63;76.23;98185.84;1738551;81;21147;-62
2021/03/18 12:29:39;;;;;;;9.63;6.03;;;;;;;2.64;75.88;98183.58;1745411;81;21242;-60
2021/03/18 12:32:08;;;;;;;10.87;5.57;;;;;;;2.64;75.07;98190.09;1708591;82;21198;-63
2021/03/18 12:34:38;;;;;;;10.87;5.33;;;;;;;2.62;75.63;98204.23;1731365;82;21199;-58
2021/03/18 12:37:08;;;;;;;12.20;6.70;;;;;;;2.60;77.18;98194.01;1727333;82;21221;-58
2021/03/18 12:39:37;;;;;;;10.97;5.53;;;;;;;2.62;76.50;98186.02;1747396;81;21185;-57
2021/03/18 12:42:09;;;;;;;9.20;5.00;;;;;;;2.66;74.42;98212.02;1752171;81;21175;-54
2021/03/18 12:44:39;;;;;;;;;;;;;;;2.67;72.98;98187.61;1746256;81;21169;-53
2021/03/18 12:47:10;;;;;;;9.13;4.72;;;;;;;2.68;73.99;98193.63;1750439;81;20137;-52
2021/03/18 12:49:40;;;;;;;10.40;5.33;;;;;;;2.71;72.90;98203.20;1748252;82;21154;-56
2021/03/18 12:52:10;;;;;;;9.13;5.07;;;;;;;2.76;74.33;98210.50;1733051;82;21189;-57
2021/03/18 12:54:39;;;;;;;7.53;4.63;;;;;;;2.83;73.12;98203.61;1740125;82;21181;-51
2021/03/18 12:57:10;;;;;;;7.90;4.22;;;;;;;2.90;73.58;98197.52;1735500;81;21196;-57
2021/03/18 12:59:40;;;;;;;7.87;4.50;;;;;;;2.98;72.28;98172.40;1733090;81;21240;-50
2021/03/18 13:02:09;;;;;;;6.83;4.40;;;;;;;2.96;73.03;98171.28;1737864;81;21387;-58
2021/03/18 13:04:39;;;;;;;8.37;4.67;;;;;;;2.97;73.06;98182.50;1708761;83;21197;-55
2021/03/18 13:07:08;;;;;;;9.73;4.97;;;;;;;3.01;73.34;98190.29;1718170;83;21134;-55
2021/03/18 13:09:38;;;;;;;11.30;5.03;;;;;;;3.02;73.54;98187.50;1682908;84;21200;-54
2021/03/18 13:12:10;;;;;;;7.97;4.60;;;;;;;3.06;71.57;98188.78;1667548;84;21190;-55
2021/03/18 13:14:40;;;;;;;9.65;4.80;;;;;;;3.04;70.52;98187.31;1677531;84;21247;-54
2021/03/18 13:17:10;;;;;;;9.97;5.83;;;;;;;3.02;71.36;98193.20;1666542;86;21217;-55
2021/03/18 13:19:39;;;;;;;8.60;5.20;;;;;;;3.05;72.13;98189.77;1682991;85;21188;-52
2021/03/18 13:22:09;;;;;;;11.70;6.17;;;;;;;3.09;72.32;98187.11;1656737;86;21258;-58
2021/03/18 13:24:39;;;;;;;8.65;4.85;;;;;;;3.12;74.04;98168.54;1683019;85;21337;-54
2021/03/18 13:27:08;;;;;;;9.00;4.67;;;;;;;3.16;73.21;98206.77;1656833;86;21338;-54
2021/03/18 13:29:38;;;;;;;10.60;5.53;;;;;;;3.11;71.54;98187.76;1673777;86;21199;-55
2021/03/18 13:32:07;;;;;;;11.27;5.77;;;;;;;3.13;73.65;98194.09;1667702;86;21211;-55
2021/03/18 13:34:39;;;;;;;10.15;4.78;;;;;;;3.21;72.76;98194.00;1668276;86;21610;-56
2021/03/18 13:37:11;;;;;;;8.27;4.97;;;;;;;3.19;72.49;98193.38;1668810;86;21132;-52
2021/03/18 13:39:45;;;;;;;9.03;4.97;;;;;;;3.19;72.90;98192.08;1667990;86;21196;-55
2021/03/18 13:42:20;;;;;;;7.77;4.40;;;;;;;3.18;73.16;98185.25;1640428;86;21217;-54
2021/03/18 13:44:50;;;;;;;6.70;4.33;;;;;;;3.14;72.72;98195.20;1664150;86;21158;-51
2021/03/18 13:47:20;;;;;;;10.75;5.25;;;;;;;3.07;74.15;98181.77;1660586;86;21199;-49
2021/03/18 13:49:54;;;;;;;9.57;5.20;;;;;;;3.06;75.20;98194.48;1664654;86;21239;-58
2021/03/18 13:52:28;;;;;;;8.27;4.83;;;;;;;3.01;75.58;98170.27;1660167;86;21177;-53
2021/03/18 13:55:00;;;;;;;9.00;4.60;;;;;;;2.94;75.25;98170.66;1667849;85;21216;-54
2021/03/18 13:57:30;;;;;;;8.40;4.70;;;;;;;2.87;74.75;98199.19;1634372;86;21184;-55
2021/03/18 14:00:07;;;;;;;13.40;5.80;;;;;;;2.79;75.33;98201.84;1635006;86;21201;-54
2021/03/18 14:02:43;;;;;;;7.23;4.27;;;;;;;2.75;77.67;98191.45;1677780;84;21233;-55
2021/03/18 14:05:13;;;;;;;8.17;4.70;;;;;;;2.78;77.14;98192.91;1707837;84;21201;-55
2021/03/18 14:07:45;;;;;;;7.60;5.10;;;;;;;2.75;76.61;98213.57;1675325;86;21200;-53
2021/03/18 14:10:16;;;;;;;8.83;4.90;;;;;;;2.71;76.43;98199.30;1695034;85;21208;-62
2021/03/18 14:12:45;;;;;;;10.33;5.67;;;;;;;2.73;77.70;98209.53;1659056;85;21246;-56
2021/03/18 14:15:18;;;;;;;10.30;5.10;;;;;;;2.69;76.16;98201.25;1689097;85;21214;-55
2021/03/18 14:17:47;;;;;;;7.87;4.70;;;;;;;2.62;75.38;98190.73;1694811;85;21711;-55
2021/03/18 14:20:23;;;;;;;8.80;4.57;;;;;;;2.56;77.02;98207.53;1684881;85;21353;-52
2021/03/18 14:22:53;;;;;;;9.80;5.00;;;;;;;2.56;77.25;98184.11;1688339;85;21355;-55
2021/03/18 14:25:23;;;;;;;11.50;6.07;;;;;;;2.53;76.35;98196.98;1694937;85;21223;-54
2021/03/18 14:27:52;;;;;;;11.90;6.50;;;;;;;2.49;77.16;98219.12;1693127;85;21198;-54
2021/03/18 14:30:25;;;;;;;7.62;4.45;;;;;;;2.47;78.23;98210.69;1692602;85;21149;-59
2021/03/18 14:32:55;;;;;;;11.03;5.50;;;;;;;2.47;78.18;98215.89;1694507;85;21226;-51
2021/03/18 14:35:25;;;;;;;8.83;5.30;;;;;;;2.45;77.91;98183.20;1663678;85;21225;-51
2021/03/18 14:37:56;;;;;;;10.25;5.90;;;;;;;2.43;78.09;98208.09;1692278;85;21219;-51
2021/03/18 14:40:28;;;;;;;11.60;5.90;;;;;;;2.40;77.80;98204.52;1720958;83;21238;-55
2021/03/18 14:43:02;;;;;;;8.97;4.87;;;;;;;2.35;78.12;98190.76;1719398;83;21167;-51
2021/03/18 14:45:34;;;;;;;8.25;5.03;;;;;;;2.32;77.86;98230.09;1720137;83;21177;-51
2021/03/18 14:48:05;;;;;;;8.28;4.80;;;;;;;2.25;78.63;98210.96;1693295;85;21175;-51
2021/03/18 14:50:36;;;;;;;7.57;4.93;;;;;;;2.22;79.83;98216.98;1708215;84;21587;-52
2021/03/18 14:53:15;;;;;;;7.35;4.80;;;;;;;2.19;80.21;98213.44;1677102;85;21207;-55
2021/03/18 14:55:46;;;;;;;8.23;4.87;;;;;;;2.16;79.46;98208.06;1671036;85;21184;-56
2021/03/18 14:58:19;;;;;;;12.37;5.87;;;;;;;2.09;80.68;98209.23;1721546;83;21613;-54
2021/03/18 15:00:49;;;;;;;16.10;6.07;;;;;;;2.10;81.67;98206.15;1720388;83;21288;-55
